Time,TemperatureF,DewpointF,PressureIn,WindDirection,WindDirectionDegrees,WindSpeedMPH,WindSpeedGustMPH,Humidity,HourlyPrecipIn,Conditions,Clouds,dailyrainin,SoftwareType,DateUTC
2013-05-12 00:04:00,37.4,33.0,29.71,SSE,157,0.0,-999.0,84,-99.99,,,0.00,Acu-Link.com,2013-05-12 04:04:00,
2013-05-12 00:20:00,37.6,33.2,29.70,SW,225,1.7,-999.0,84,-99.99,,,0.00,Acu-Link.com,2013-05-12 04:20:00,
2013-05-12 00:35:00,37.6,33.5,29.71,SW,225,2.7,-999.0,85,-99.99,,,0.00,Acu-Link.com,2013-05-12 04:35:00,
2013-05-12 00:50:00,37.8,33.4,29.71,SSW,202,3.2,-999.0,84,-99.99,,,0.00,Acu-Link.com,2013-05-12 04:50:00,
2013-05-12 01:06:00,37.4,33.3,29.71,SW,225,3.7,-999.0,85,-99.99,,,0.00,Acu-Link.com,2013-05-12 05:06:00,
2013-05-12 01:21:00,37.9,33.8,29.71,SW,225,3.7,-999.0,85,-99.99,,,0.00,Acu-Link.com,2013-05-12 05:21:00,
2013-05-12 01:36:00,38.5,34.1,29.71,SW,225,1.7,-999.0,84,-99.99,,,0.00,Acu-Link.com,2013-05-12 05:36:00,
2013-05-12 01:52:00,38.3,34.2,29.71,SSE,157,3.7,-999.0,85,-99.99,,,0.00,Acu-Link.com,2013-05-12 05:52:00,
2013-05-12 02:07:00,38.3,34.2,29.71,SW,225,3.2,-999.0,85,-99.99,,,0.00,Acu-Link.com,2013-05-12 06:07:00,
2013-05-12 02:22:00,37.9,33.8,29.71,SW,225,5.3,-999.0,85,-99.99,,,0.00,Acu-Link.com,2013-05-12 06:22:00,
2013-05-12 02:37:00,37.9,33.8,29.71,SW,225,2.7,-999.0,85,-99.99,,,0.00,Acu-Link.com,2013-05-12 06:37:00,
2013-05-12 02:52:00,38.1,33.7,29.70,SW,225,5.8,-999.0,84,-99.99,,,0.00,Acu-Link.com,2013-05-12 06:52:00,
2013-05-12 03:07:00,37.6,33.8,29.70,SW,225,2.7,-999.0,86,-99.99,,,0.00,Acu-Link.com,2013-05-12 07:07:00,
2013-05-12 03:23:00,37.4,33.6,29.69,SSW,202,4.2,-999.0,86,-99.99,,,0.00,Acu-Link.com,2013-05-12 07:23:00,
2013-05-12 03:38:00,37.9,33.2,29.69,WSW,247,2.7,-999.0,83,-99.99,,,0.00,Acu-Link.com,2013-05-12 07:38:00,
2013-05-12 03:53:00,38.1,33.4,29.69,West,270,5.8,-999.0,83,-99.99,,,0.00,Acu-Link.com,2013-05-12 07:53:00,
2013-05-12 04:09:00,38.3,33.6,29.69,ESE,112,1.7,-999.0,83,-99.99,,,0.00,Acu-Link.com,2013-05-12 08:09:00,
2013-05-12 04:24:00,37.9,33.2,29.69,NNW,337,2.2,-999.0,83,-99.99,,,0.00,Acu-Link.com,2013-05-12 08:24:00,
2013-05-12 04:39:00,37.6,32.6,29.69,West,270,3.7,-999.0,82,-99.99,,,0.00,Acu-Link.com,2013-05-12 08:39:00,
2013-05-12 04:54:00,37.2,31.9,29.69,West,270,3.2,-999.0,81,-99.99,,,0.00,Acu-Link.com,2013-05-12 08:54:00,
2013-05-12 05:09:00,36.9,31.9,29.69,SW,225,3.2,-999.0,82,-99.99,,,0.00,Acu-Link.com,2013-05-12 09:09:00,
2013-05-12 05:24:00,36.9,31.9,29.69,WSW,247,5.3,-999.0,82,-99.99,,,0.00,Acu-Link.com,2013-05-12 09:24:00,
2013-05-12 05:40:00,36.7,31.7,29.69,West,270,3.2,-999.0,82,-99.99,,,0.00,Acu-Link.com,2013-05-12 09:40:00,
2013-05-12 05:55:00,37.0,32.3,29.69,WNW,292,2.7,-999.0,83,-99.99,,,0.00,Acu-Link.com,2013-05-12 09:55:00,
2013-05-12 06:10:00,36.9,31.9,29.70,SW,225,4.2,-999.0,82,-99.99,,,0.00,Acu-Link.com,2013-05-12 10:10:00,
2013-05-12 06:25:00,37.0,32.0,29.70,SW,225,2.7,-999.0,82,-99.99,,,0.00,Acu-Link.com,2013-05-12 10:25:00,
2013-05-12 06:40:00,36.9,31.9,29.71,NW,315,8.9,-999.0,82,-99.99,,,0.00,Acu-Link.com,2013-05-12 10:40:00,
2013-05-12 06:56:00,37.2,32.2,29.71,WSW,247,4.2,-999.0,82,-99.99,,,0.00,Acu-Link.com,2013-05-12 10:56:00,
2013-05-12 07:11:00,38.1,32.8,29.71,WNW,292,1.7,-999.0,81,-99.99,,,0.00,Acu-Link.com,2013-05-12 11:11:00,
2013-05-12 07:26:00,38.7,32.1,29.72,WNW,292,6.3,-999.0,77,-99.99,,,0.00,Acu-Link.com,2013-05-12 11:26:00,
2013-05-12 07:41:00,39.0,31.8,29.71,NNW,337,2.7,-999.0,75,-99.99,,,0.00,Acu-Link.com,2013-05-12 11:41:00,
2013-05-12 07:56:00,39.4,30.8,29.72,SSW,202,6.8,-999.0,71,-99.99,,,0.00,Acu-Link.com,2013-05-12 11:56:00,
2013-05-12 08:12:00,40.8,31.4,29.72,NNE,22,5.3,-999.0,69,-99.99,,,0.00,Acu-Link.com,2013-05-12 12:12:00,
2013-05-12 08:27:00,41.9,31.8,29.72,West,270,5.8,-999.0,67,-99.99,,,0.00,Acu-Link.com,2013-05-12 12:27:00,
2013-05-12 08:43:00,42.1,31.9,29.72,SSW,202,7.8,-999.0,67,-99.99,,,0.00,Acu-Link.com,2013-05-12 12:43:00,
2013-05-12 08:58:00,42.3,31.4,29.72,WSW,247,5.3,-999.0,65,-99.99,,,0.00,Acu-Link.com,2013-05-12 12:58:00,
2013-05-12 09:13:00,42.6,31.7,29.72,SW,225,2.7,-999.0,65,-99.99,,,0.00,Acu-Link.com,2013-05-12 13:13:00,
2013-05-12 09:28:00,43.0,31.3,29.72,West,270,4.2,-999.0,63,-99.99,,,0.00,Acu-Link.com,2013-05-12 13:28:00,
2013-05-12 09:43:00,42.6,30.9,29.72,SW,225,6.8,-999.0,63,-99.99,,,0.00,Acu-Link.com,2013-05-12 13:43:00,
2013-05-12 09:59:00,43.7,31.1,29.71,SW,225,4.2,-999.0,61,-99.99,,,0.00,Acu-Link.com,2013-05-12 13:59:00,
2013-05-12 10:14:00,44.1,31.9,29.71,WNW,292,2.2,-999.0,62,-99.99,,,0.00,Acu-Link.com,2013-05-12 14:14:00,
2013-05-12 10:29:00,43.5,31.0,29.72,WSW,247,5.8,-999.0,61,-99.99,,,0.00,Acu-Link.com,2013-05-12 14:29:00,
2013-05-12 10:45:00,43.5,30.5,29.72,NNE,22,6.3,-999.0,60,-99.99,,,0.00,Acu-Link.com,2013-05-12 14:45:00,
2013-05-12 11:00:00,43.7,31.1,29.72,SE,135,2.7,-999.0,61,-99.99,,,0.00,Acu-Link.com,2013-05-12 15:00:00,
2013-05-12 11:15:00,45.3,32.2,29.72,SW,225,2.7,-999.0,60,-99.99,,,0.00,Acu-Link.com,2013-05-12 15:15:00,
2013-05-12 11:30:00,45.1,31.2,29.73,NW,315,6.3,-999.0,58,-99.99,,,0.00,Acu-Link.com,2013-05-12 15:30:00,
2013-05-12 11:45:00,45.5,31.2,29.72,SSW,202,7.3,-999.0,57,-99.99,,,0.00,Acu-Link.com,2013-05-12 15:45:00,
2013-05-12 12:01:00,45.0,31.1,29.73,West,270,5.8,-999.0,58,-99.99,,,0.00,Acu-Link.com,2013-05-12 16:01:00,
2013-05-12 12:16:00,47.1,30.9,29.73,NE,45,12.5,-999.0,53,-99.99,,,0.00,Acu-Link.com,2013-05-12 16:16:00,
2013-05-12 12:31:00,46.6,30.9,29.73,South,180,5.8,-999.0,54,-99.99,,,0.00,Acu-Link.com,2013-05-12 16:31:00,
2013-05-12 12:46:00,48.0,31.2,29.73,SSW,202,6.8,-999.0,52,-99.99,,,0.00,Acu-Link.com,2013-05-12 16:46:00,
2013-05-12 13:02:00,49.1,29.2,29.73,WNW,292,3.7,-999.0,46,-99.99,,,0.00,Acu-Link.com,2013-05-12 17:02:00,
2013-05-12 13:17:00,47.7,29.5,29.74,South,180,4.2,-999.0,49,-99.99,,,0.00,Acu-Link.com,2013-05-12 17:17:00,
2013-05-12 13:32:00,48.9,29.6,29.74,North,0,5.8,-999.0,47,-99.99,,,0.00,Acu-Link.com,2013-05-12 17:32:00,
2013-05-12 13:47:00,50.9,31.4,29.74,NNW,337,4.7,-999.0,47,-99.99,,,0.00,Acu-Link.com,2013-05-12 17:47:00,
2013-05-12 14:02:00,47.7,29.5,29.74,East,90,7.8,-999.0,49,-99.99,,,0.00,Acu-Link.com,2013-05-12 18:02:00,
2013-05-12 14:18:00,49.6,30.7,29.74,WSW,247,8.9,-999.0,48,-99.99,,,0.00,Acu-Link.com,2013-05-12 18:18:00,
2013-05-12 14:33:00,47.7,31.4,29.75,South,180,6.3,-999.0,53,-99.99,,,0.00,Acu-Link.com,2013-05-12 18:33:00,
2013-05-12 14:49:00,46.9,32.5,29.75,East,90,6.3,-999.0,57,-99.99,,,0.00,Acu-Link.com,2013-05-12 18:49:00,
2013-05-12 15:04:00,48.4,31.6,29.75,SW,225,5.8,-999.0,52,-99.99,,,0.00,Acu-Link.com,2013-05-12 19:04:00,
2013-05-12 15:19:00,47.5,31.7,29.75,ENE,67,4.2,-999.0,54,-99.99,,,0.00,Acu-Link.com,2013-05-12 19:19:00,
2013-05-12 15:34:00,46.4,34.1,29.76,SW,225,3.7,-999.0,62,-99.99,,,0.00,Acu-Link.com,2013-05-12 19:34:00,
2013-05-12 15:49:00,46.8,33.7,29.76,North,0,6.8,-999.0,60,-99.99,,,0.00,Acu-Link.com,2013-05-12 19:49:00,
2013-05-12 16:04:00,46.4,29.7,29.77,NNW,337,9.9,-999.0,52,-99.99,,,0.00,Acu-Link.com,2013-05-12 20:04:00,
2013-05-12 16:20:00,46.0,30.3,29.76,NNW,337,6.3,-999.0,54,-99.99,,,0.00,Acu-Link.com,2013-05-12 20:20:00,
2013-05-12 16:35:00,46.0,30.3,29.78,NW,315,7.3,-999.0,54,-99.99,,,0.00,Acu-Link.com,2013-05-12 20:35:00,
2013-05-12 16:50:00,46.6,29.9,29.79,NNW,337,6.8,-999.0,52,-99.99,,,0.00,Acu-Link.com,2013-05-12 20:50:00,
2013-05-12 17:05:00,45.5,29.4,29.79,SW,225,6.8,-999.0,53,-99.99,,,0.00,Acu-Link.com,2013-05-12 21:05:00,
2013-05-12 17:20:00,45.0,29.4,29.80,WNW,292,4.2,-999.0,54,-99.99,,,0.00,Acu-Link.com,2013-05-12 21:20:00,
2013-05-12 17:36:00,44.1,29.0,29.81,WSW,247,6.8,-999.0,55,-99.99,,,0.00,Acu-Link.com,2013-05-12 21:36:00,
2013-05-12 17:51:00,43.3,29.1,29.82,NNW,337,2.2,-999.0,57,-99.99,,,0.00,Acu-Link.com,2013-05-12 21:51:00,
2013-05-12 18:06:00,42.6,28.0,29.81,WSW,247,4.2,-999.0,56,-99.99,,,0.00,Acu-Link.com,2013-05-12 22:06:00,
2013-05-12 18:21:00,42.6,27.6,29.82,WSW,247,10.9,-999.0,55,-99.99,,,0.00,Acu-Link.com,2013-05-12 22:21:00,
2013-05-12 18:36:00,42.3,27.3,29.82,NNE,22,4.7,-999.0,55,-99.99,,,0.00,Acu-Link.com,2013-05-12 22:36:00,
2013-05-12 18:52:00,42.3,27.3,29.83,West,270,8.9,-999.0,55,-99.99,,,0.00,Acu-Link.com,2013-05-12 22:52:00,
2013-05-12 19:07:00,41.7,27.2,29.83,North,0,4.2,-999.0,56,-99.99,,,0.00,Acu-Link.com,2013-05-12 23:07:00,
2013-05-12 19:22:00,41.7,26.7,29.83,NE,45,4.7,-999.0,55,-99.99,,,0.00,Acu-Link.com,2013-05-12 23:22:00,
2013-05-12 19:37:00,41.5,25.7,29.84,NE,45,8.3,-999.0,53,-99.99,,,0.00,Acu-Link.com,2013-05-12 23:37:00,
2013-05-12 19:52:00,41.2,25.4,29.85,NNW,337,4.2,-999.0,53,-99.99,,,0.00,Acu-Link.com,2013-05-12 23:52:00,
2013-05-12 20:07:00,40.8,25.0,29.86,SW,225,4.7,-999.0,53,-99.99,,,0.00,Acu-Link.com,2013-05-13 00:07:00,
2013-05-12 20:23:00,40.5,24.7,29.86,NNE,22,3.2,-999.0,53,-99.99,,,0.00,Acu-Link.com,2013-05-13 00:23:00,
2013-05-12 20:38:00,40.1,24.8,29.87,WNW,292,3.7,-999.0,54,-99.99,,,0.00,Acu-Link.com,2013-05-13 00:38:00,
2013-05-12 20:53:00,39.9,24.6,29.88,WNW,292,8.9,-999.0,54,-99.99,,,0.00,Acu-Link.com,2013-05-13 00:53:00,
2013-05-12 21:08:00,39.6,25.2,29.88,ENE,67,1.7,-999.0,56,-99.99,,,0.00,Acu-Link.com,2013-05-13 01:08:00,
2013-05-12 21:23:00,39.0,24.7,29.88,East,90,5.8,-999.0,56,-99.99,,,0.00,Acu-Link.com,2013-05-13 01:23:00,
2013-05-12 21:39:00,39.0,25.1,29.89,NW,315,4.2,-999.0,57,-99.99,,,0.00,Acu-Link.com,2013-05-13 01:39:00,
2013-05-12 21:54:00,38.5,25.4,29.90,NNW,337,4.7,-999.0,59,-99.99,,,0.00,Acu-Link.com,2013-05-13 01:54:00,
2013-05-12 22:09:00,38.1,25.1,29.90,West,270,5.8,-999.0,59,-99.99,,,0.00,Acu-Link.com,2013-05-13 02:09:00,
2013-05-12 22:25:00,37.9,25.7,29.90,NNW,337,2.2,-999.0,61,-99.99,,,0.00,Acu-Link.com,2013-05-13 02:25:00,
2013-05-12 22:40:00,37.4,25.2,29.91,East,90,3.7,-999.0,61,-99.99,,,0.00,Acu-Link.com,2013-05-13 02:40:00,
2013-05-12 22:55:00,36.9,25.1,29.91,WNW,292,1.7,-999.0,62,-99.99,,,0.00,Acu-Link.com,2013-05-13 02:55:00,
2013-05-12 23:11:00,36.3,25.3,29.91,NNW,337,3.7,-999.0,64,-99.99,,,0.00,Acu-Link.com,2013-05-13 03:11:00,
2013-05-12 23:26:00,35.6,24.6,29.91,WNW,292,0.0,-999.0,64,-99.99,,,0.00,Acu-Link.com,2013-05-13 03:26:00,
2013-05-12 23:41:00,34.9,25.1,29.91,West,270,0.0,-999.0,67,-99.99,,,0.00,Acu-Link.com,2013-05-13 03:41:00,
2013-05-12 23:57:00,34.2,25.5,29.91,NNW,337,0.0,-999.0,70,-99.99,,,0.00,Acu-Link.com,2013-05-13 03:57:00,